Terminal Aerodrome Forecast
Issued by NWS Goodland, KS

Home | Current Version | Previous Version | Text Only | Print | Product List | Glossary On
Versions: 1 2 3 4 5 6 7 8 9 10 11 12 13 14 15 16 17 18 19 20 21 22 23
000
FTUS43 KGLD 171126
TAFGLD
TAF
KGLD 171126Z 1712/1812 13007KT P6SM OVC005
     FM180000 08007KT P6SM VCSH OVC005
     FM180300 08006KT 3SM -SN BR BKN007
      TEMPO 1804/1808 1SM -SN
     FM181000 02005KT P6SM BKN007=

USA.gov is the U.S. government's official web portal to all federal, state and local government web resources and services.